createdAt,value
2022-08-26T00:01:54.590Z,3.05
2022-08-26T00:04:25.615Z,5.18
2022-08-26T00:06:54.505Z,5.70
2022-08-26T00:09:23.114Z,5.10
2022-08-26T00:11:53.804Z,2.97
2022-08-26T00:14:30.797Z,4.10
2022-08-26T00:17:00.217Z,4.90
2022-08-26T00:19:29.084Z,5.40
2022-08-26T00:21:57.524Z,5.28
2022-08-26T00:24:26.117Z,2.97
2022-08-26T00:26:54.504Z,3.75
2022-08-26T00:29:24.379Z,3.90
2022-08-26T00:31:52.905Z,3.72
2022-08-26T00:34:21.495Z,4.70
2022-08-26T00:36:52.059Z,4.90
2022-08-26T00:39:21.465Z,3.70
2022-08-26T00:41:50.710Z,3.38
2022-08-26T00:44:20.205Z,2.63
2022-08-26T00:46:52.784Z,3.85
2022-08-26T00:49:27.995Z,3.17
2022-08-26T00:54:35.237Z,3.40
2022-08-26T00:57:16.244Z,4.95
2022-08-26T00:59:46.815Z,3.67
2022-08-26T01:02:21.266Z,3.88
2022-08-26T01:04:55.625Z,4.20
2022-08-26T01:07:27.484Z,2.92
2022-08-26T01:10:00.167Z,3.95
2022-08-26T01:12:32.767Z,3.75
2022-08-26T01:15:02.354Z,4.32
2022-08-26T01:17:33.771Z,3.55
2022-08-26T01:20:09.744Z,4.45
2022-08-26T01:22:53.967Z,2.72
2022-08-26T01:25:23.944Z,3.63
2022-08-26T01:27:57.934Z,3.70
2022-08-26T01:30:27.144Z,4.03
2022-08-26T01:32:57.694Z,4.63
2022-08-26T01:35:26.254Z,2.97
2022-08-26T01:37:57.614Z,4.10
2022-08-26T01:40:30.003Z,3.90
2022-08-26T01:42:58.814Z,4.15
2022-08-26T01:45:30.200Z,3.25
2022-08-26T01:48:01.191Z,3.72
2022-08-26T01:50:33.405Z,3.53
2022-08-26T01:53:07.820Z,3.78
2022-08-26T01:55:39.329Z,3.10
2022-08-26T01:58:17.844Z,3.75
2022-08-26T02:00:47.637Z,4.35
2022-08-26T02:03:22.396Z,4.10
2022-08-26T02:05:57.745Z,3.83
2022-08-26T02:10:59.089Z,3.22
2022-08-26T02:13:31.964Z,3.05
2022-08-26T02:16:04.110Z,4.45
2022-08-26T02:18:35.984Z,2.80
2022-08-26T02:21:06.755Z,2.97
2022-08-26T02:23:37.254Z,3.88
2022-08-26T02:26:11.524Z,3.33
2022-08-26T02:28:47.644Z,3.35
2022-08-26T02:31:16.141Z,3.67
2022-08-26T02:33:44.914Z,2.45
2022-08-26T02:36:13.599Z,3.30
2022-08-26T02:38:46.123Z,3.28
2022-08-26T02:41:14.806Z,4.05
2022-08-26T02:43:43.264Z,3.90
2022-08-26T02:46:12.378Z,3.35
2022-08-26T02:48:49.964Z,3.33
2022-08-26T02:51:18.584Z,3.85
2022-08-26T02:53:48.484Z,2.90
2022-08-26T02:56:17.083Z,2.75
2022-08-26T02:58:45.574Z,2.22
2022-08-26T03:01:22.163Z,2.70
2022-08-26T03:03:50.696Z,3.47
2022-08-26T03:06:20.243Z,2.63
2022-08-26T03:08:50.406Z,2.75
2022-08-26T03:11:19.525Z,1.58
2022-08-26T03:13:48.162Z,3.97
2022-08-26T03:16:16.709Z,3.40
2022-08-26T03:18:51.961Z,3.13
2022-08-26T03:21:21.564Z,3.38
2022-08-26T03:23:51.584Z,3.45
2022-08-26T03:26:20.066Z,3.38
2022-08-26T03:29:08.574Z,2.13
2022-08-26T03:31:38.303Z,3.50
2022-08-26T03:34:06.786Z,2.28
2022-08-26T03:36:35.433Z,2.78
2022-08-26T03:39:06.634Z,2.80
2022-08-26T03:41:36.873Z,1.80
2022-08-26T03:44:07.004Z,2.97
2022-08-26T03:46:36.938Z,3.53
2022-08-26T03:49:06.554Z,2.05
2022-08-26T03:51:38.839Z,3.63
2022-08-26T03:54:09.825Z,3.05
2022-08-26T03:56:38.785Z,2.13
2022-08-26T03:59:08.744Z,1.88
2022-08-26T04:01:37.692Z,3.63
2022-08-26T04:04:06.705Z,2.53
2022-08-26T04:06:40.185Z,2.65
2022-08-26T04:09:12.665Z,2.75
2022-08-26T04:11:42.157Z,2.65
2022-08-26T04:14:17.502Z,2.65
2022-08-26T04:16:49.635Z,2.17
2022-08-26T04:19:18.833Z,3.97
2022-08-26T04:21:51.213Z,3.10
2022-08-26T04:24:22.793Z,2.65
2022-08-26T04:26:51.406Z,3.47
2022-08-26T04:29:24.196Z,2.78
2022-08-26T04:31:55.774Z,2.40
2022-08-26T04:34:24.535Z,2.90
2022-08-26T04:36:56.205Z,2.67
2022-08-26T04:39:27.669Z,3.30
2022-08-26T04:41:57.763Z,2.63
2022-08-26T04:44:28.144Z,2.70
2022-08-26T04:46:56.973Z,2.63
2022-08-26T04:49:26.028Z,2.22
2022-08-26T04:51:56.108Z,2.40
2022-08-26T04:54:26.343Z,1.38
2022-08-26T04:56:55.274Z,2.70
2022-08-26T04:59:25.386Z,2.35
2022-08-26T05:01:57.571Z,1.88
2022-08-26T05:04:26.175Z,1.40
2022-08-26T05:06:59.260Z,1.88
2022-08-26T05:09:32.583Z,3.17
2022-08-26T05:12:01.070Z,2.20
2022-08-26T05:14:29.604Z,2.22
2022-08-26T05:16:58.094Z,2.08
2022-08-26T05:19:27.868Z,2.78
2022-08-26T05:21:56.463Z,2.30
2022-08-26T05:24:25.064Z,1.73
2022-08-26T05:26:54.944Z,1.98
2022-08-26T05:29:25.813Z,1.27
2022-08-26T05:31:55.974Z,1.58
2022-08-26T05:34:25.750Z,1.90
2022-08-26T05:36:58.684Z,1.88
2022-08-26T05:39:27.244Z,2.38
2022-08-26T05:41:57.125Z,1.42
2022-08-26T05:44:25.604Z,2.65
2022-08-26T05:46:54.025Z,1.27
2022-08-26T05:49:22.598Z,2.60
2022-08-26T05:51:54.975Z,2.08
2022-08-26T05:54:23.404Z,2.13
2022-08-26T05:56:52.273Z,1.55
2022-08-26T05:59:24.615Z,2.47
2022-08-26T06:01:55.000Z,1.98
2022-08-26T06:04:27.028Z,2.17
2022-08-26T06:06:57.925Z,1.33
2022-08-26T06:09:27.158Z,1.63
2022-08-26T06:11:56.124Z,4.47
2022-08-26T06:14:27.223Z,2.80
2022-08-26T06:16:55.734Z,2.03
2022-08-26T06:19:25.096Z,2.38
2022-08-26T06:22:23.742Z,2.40
2022-08-26T06:25:09.923Z,1.95
2022-08-26T06:30:10.594Z,1.45
2022-08-26T06:32:39.094Z,2.42
2022-08-26T06:35:12.027Z,1.33
2022-08-26T06:37:40.847Z,1.58
2022-08-26T06:40:11.485Z,2.15
2022-08-26T06:42:40.393Z,1.85
2022-08-26T06:45:11.314Z,11.05
2022-08-26T06:47:39.754Z,5.25
2022-08-26T06:50:08.880Z,10.10
2022-08-26T06:52:37.374Z,9.20
2022-08-26T06:55:06.504Z,16.00
2022-08-26T06:57:39.675Z,18.70
2022-08-26T07:00:12.776Z,22.08
2022-08-26T07:02:46.165Z,26.60
2022-08-26T07:05:15.755Z,19.35
2022-08-26T07:07:45.529Z,13.52
2022-08-26T07:10:13.929Z,14.57
2022-08-26T07:12:42.594Z,13.48
2022-08-26T07:15:17.824Z,10.23
2022-08-26T07:17:52.364Z,8.90
2022-08-26T07:20:21.144Z,10.02
2022-08-26T07:22:49.584Z,34.72
2022-08-26T07:25:19.291Z,9.10
2022-08-26T07:27:54.452Z,6.53
2022-08-26T07:30:25.057Z,8.57
2022-08-26T07:32:53.824Z,6.72
2022-08-26T07:35:22.419Z,8.20
2022-08-26T07:37:55.044Z,9.43
2022-08-26T07:40:26.405Z,7.65
2022-08-26T07:42:55.094Z,7.13
2022-08-26T07:45:25.335Z,7.03
2022-08-26T07:47:54.503Z,6.55
2022-08-26T07:50:34.197Z,4.95
2022-08-26T07:53:13.265Z,5.30
2022-08-26T07:55:43.324Z,7.65
2022-08-26T07:58:12.045Z,5.82
2022-08-26T08:00:42.473Z,8.32
2022-08-26T08:03:12.145Z,5.65
2022-08-26T08:05:43.534Z,8.15
2022-08-26T08:08:26.648Z,7.07
2022-08-26T08:10:56.054Z,8.15
2022-08-26T08:13:25.176Z,7.20
2022-08-26T08:15:55.284Z,6.05
2022-08-26T08:18:23.884Z,6.07
2022-08-26T08:20:59.214Z,4.97
2022-08-26T08:23:34.213Z,5.35
2022-08-26T08:26:03.304Z,5.40
2022-08-26T08:28:34.764Z,4.93
2022-08-26T08:31:05.372Z,6.30
2022-08-26T08:33:35.260Z,4.65
2022-08-26T08:36:07.534Z,4.88
2022-08-26T08:38:37.874Z,6.97
2022-08-26T08:41:06.314Z,5.32
2022-08-26T08:43:42.174Z,5.78
2022-08-26T08:46:16.520Z,7.40
2022-08-26T08:48:48.304Z,6.82
2022-08-26T08:51:23.684Z,5.53
2022-08-26T08:53:55.995Z,4.40
2022-08-26T08:56:30.554Z,5.28
2022-08-26T08:59:08.674Z,3.45
2022-08-26T09:01:56.904Z,6.20
2022-08-26T09:04:51.615Z,7.18
2022-08-26T09:07:23.969Z,4.20
2022-08-26T09:09:57.489Z,5.90
2022-08-26T09:12:29.410Z,5.32
2022-08-26T09:15:03.412Z,6.43
2022-08-26T09:17:45.439Z,5.93
2022-08-26T09:20:22.240Z,6.30
2022-08-26T09:22:51.589Z,4.72
2022-08-26T09:25:19.990Z,4.45
2022-08-26T09:27:50.899Z,5.75
2022-08-26T09:30:30.166Z,3.78
2022-08-26T09:33:03.308Z,4.60
2022-08-26T09:35:40.929Z,3.75
2022-08-26T09:38:24.539Z,4.32
2022-08-26T09:43:28.815Z,4.45
2022-08-26T09:46:13.751Z,4.05
2022-08-26T09:48:44.030Z,5.28
2022-08-26T09:51:29.649Z,4.63
2022-08-26T09:54:08.253Z,4.95
2022-08-26T09:56:40.531Z,6.38
2022-08-26T09:59:22.559Z,4.55
2022-08-26T10:01:51.430Z,2.72
2022-08-26T10:04:26.704Z,5.43
2022-08-26T10:07:00.679Z,3.60
2022-08-26T10:09:32.549Z,2.03
2022-08-26T10:12:05.102Z,3.55
2022-08-26T10:14:39.576Z,3.20
2022-08-26T10:17:15.879Z,4.10
2022-08-26T10:19:56.550Z,5.82
2022-08-26T10:22:32.729Z,5.47
2022-08-26T10:25:04.910Z,4.95
2022-08-26T10:27:44.562Z,7.70
2022-08-26T10:30:22.040Z,6.35
2022-08-26T10:32:56.310Z,6.28
2022-08-26T10:35:27.301Z,4.93
2022-08-26T10:38:01.700Z,6.68
2022-08-26T10:40:37.131Z,4.40
2022-08-26T10:43:11.648Z,4.82
2022-08-26T10:45:48.005Z,3.97
2022-08-26T10:48:25.919Z,3.90
2022-08-26T10:51:07.131Z,5.87
2022-08-26T10:53:47.709Z,5.18
2022-08-26T10:56:34.330Z,3.65
2022-08-26T10:59:14.489Z,4.50
2022-08-26T11:01:51.152Z,2.22
2022-08-26T11:04:46.932Z,2.65
2022-08-26T11:07:41.399Z,3.83
2022-08-26T11:11:03.629Z,3.05
2022-08-26T11:14:01.028Z,2.75
2022-08-26T11:16:43.297Z,4.25
2022-08-26T11:19:58.913Z,2.25
2022-08-26T11:22:28.449Z,3.72
2022-08-26T11:25:14.989Z,2.72
2022-08-26T11:28:06.940Z,4.68
2022-08-26T11:30:47.939Z,3.83
2022-08-26T11:33:59.707Z,3.25
2022-08-26T11:37:07.166Z,2.13
2022-08-26T11:39:54.029Z,3.38
2022-08-26T11:42:33.433Z,1.52
2022-08-26T11:45:05.375Z,4.20
2022-08-26T11:47:34.339Z,3.10
2022-08-26T11:50:11.538Z,2.25
2022-08-26T11:52:40.274Z,2.08
2022-08-26T11:55:12.451Z,3.15
2022-08-26T11:57:46.150Z,1.02
2022-08-26T12:00:22.232Z,3.70
2022-08-26T12:02:52.365Z,3.13
2022-08-26T12:05:30.797Z,4.38
2022-08-26T12:08:04.127Z,2.90
2022-08-26T12:10:35.969Z,3.28
2022-08-26T12:13:08.254Z,2.72
2022-08-26T12:15:37.231Z,6.22
2022-08-26T12:18:22.737Z,2.63
2022-08-26T12:21:01.159Z,4.47
2022-08-26T12:23:41.868Z,6.47
2022-08-26T12:26:21.325Z,4.63
2022-08-26T12:28:57.489Z,3.90
2022-08-26T12:31:30.792Z,4.78
2022-08-26T12:34:02.301Z,6.22
2022-08-26T12:36:34.529Z,5.38
2022-08-26T12:39:11.299Z,3.90
2022-08-26T12:41:54.701Z,3.78
2022-08-26T12:44:53.805Z,3.00
2022-08-26T12:47:39.075Z,3.90
2022-08-26T12:50:19.530Z,3.72
2022-08-26T12:52:57.039Z,5.28
2022-08-26T12:55:36.789Z,3.80
2022-08-26T12:58:15.059Z,5.63
2022-08-26T13:00:47.661Z,5.90
2022-08-26T13:03:46.282Z,4.35
2022-08-26T13:06:30.092Z,7.32
2022-08-26T13:09:00.682Z,4.72
2022-08-26T13:11:31.014Z,8.15
2022-08-26T13:14:01.809Z,6.13
2022-08-26T13:16:31.947Z,8.88
2022-08-26T13:19:02.537Z,4.50
2022-08-26T13:21:37.565Z,5.30
2022-08-26T13:24:09.489Z,4.43
2022-08-26T13:26:37.991Z,5.45
2022-08-26T13:29:10.164Z,12.05
2022-08-26T13:31:42.676Z,6.70
2022-08-26T13:34:18.309Z,7.88
2022-08-26T13:36:47.271Z,4.30
2022-08-26T13:39:15.899Z,4.00
2022-08-26T13:41:44.694Z,3.85
2022-08-26T13:44:13.792Z,6.75
2022-08-26T13:49:17.490Z,5.50
2022-08-26T13:51:46.040Z,3.38
2022-08-26T13:54:14.459Z,6.32
2022-08-26T13:56:42.941Z,5.65
2022-08-26T13:59:12.260Z,2.72
2022-08-26T14:01:40.689Z,2.28
2022-08-26T14:04:10.669Z,4.18
2022-08-26T14:06:39.150Z,4.53
2022-08-26T14:09:07.579Z,4.25
2022-08-26T14:11:50.544Z,2.35
2022-08-26T14:14:22.684Z,3.88
2022-08-26T14:16:58.966Z,2.83
2022-08-26T14:19:31.379Z,3.15
2022-08-26T14:22:01.640Z,1.90
2022-08-26T14:24:30.744Z,4.32
2022-08-26T14:26:59.651Z,4.93
2022-08-26T14:29:28.580Z,2.22
2022-08-26T14:31:58.879Z,2.97
2022-08-26T14:34:27.449Z,2.65
2022-08-26T14:36:57.371Z,2.55
2022-08-26T14:39:29.389Z,3.53
2022-08-26T14:41:58.430Z,2.00
2022-08-26T14:44:30.669Z,4.13
2022-08-26T14:47:02.764Z,2.00
2022-08-26T14:49:31.760Z,2.35
2022-08-26T14:52:02.205Z,3.60
2022-08-26T14:54:30.206Z,2.88
2022-08-26T14:57:01.930Z,4.15
2022-08-26T14:59:32.649Z,0.80
2022-08-26T15:02:01.895Z,5.22
2022-08-26T15:04:30.770Z,1.73
2022-08-26T15:07:02.570Z,3.47
2022-08-26T15:09:33.460Z,2.58
2022-08-26T15:12:02.069Z,4.15
2022-08-26T15:14:32.964Z,2.45
2022-08-26T15:17:01.779Z,2.58
2022-08-26T15:19:30.249Z,2.85
2022-08-26T15:21:58.830Z,4.60
2022-08-26T15:24:29.129Z,2.67
2022-08-26T15:26:58.189Z,4.05
2022-08-26T15:29:26.679Z,3.45
2022-08-26T15:31:57.391Z,5.10
2022-08-26T15:34:26.571Z,2.50
2022-08-26T15:36:55.741Z,4.63
2022-08-26T15:39:24.210Z,1.65
2022-08-26T15:41:56.313Z,0.98
2022-08-26T15:44:26.719Z,1.13
2022-08-26T15:46:58.635Z,2.95
2022-08-26T15:49:28.063Z,2.47
2022-08-26T15:51:56.559Z,3.53
2022-08-26T15:54:25.939Z,2.70
2022-08-26T15:56:55.850Z,3.25
2022-08-26T15:59:24.359Z,3.78
2022-08-26T16:01:53.432Z,2.22
2022-08-26T16:04:22.331Z,2.67
2022-08-26T16:06:52.358Z,4.50
2022-08-26T16:09:23.929Z,3.60
2022-08-26T16:11:52.920Z,2.67
2022-08-26T16:14:23.349Z,2.53
2022-08-26T16:16:52.129Z,4.25
2022-08-26T16:19:21.301Z,3.75
2022-08-26T16:21:51.598Z,3.25
2022-08-26T16:24:24.886Z,3.60
2022-08-26T16:26:55.971Z,2.40
2022-08-26T16:29:25.959Z,4.38
2022-08-26T16:31:54.884Z,4.55
2022-08-26T16:34:23.950Z,1.45
2022-08-26T16:36:52.749Z,3.90
2022-08-26T16:39:21.261Z,3.92
2022-08-26T16:41:49.699Z,3.05
2022-08-26T16:44:18.259Z,4.72
2022-08-26T16:46:48.313Z,2.25
2022-08-26T16:49:16.979Z,3.33
2022-08-26T16:51:45.749Z,2.95
2022-08-26T16:54:14.351Z,2.78
2022-08-26T16:56:42.749Z,3.90
2022-08-26T16:59:12.480Z,5.32
2022-08-26T17:01:40.948Z,3.20
2022-08-26T17:04:11.009Z,3.17
2022-08-26T17:06:39.849Z,2.38
2022-08-26T17:09:08.839Z,2.80
2022-08-26T17:11:37.349Z,3.47
2022-08-26T17:14:07.099Z,5.25
2022-08-26T17:16:35.840Z,4.43
2022-08-26T17:19:04.709Z,5.28
2022-08-26T17:21:36.419Z,4.47
2022-08-26T17:24:06.350Z,5.55
2022-08-26T17:26:38.009Z,3.42
2022-08-26T17:29:07.529Z,3.67
2022-08-26T17:31:35.950Z,5.68
2022-08-26T17:34:05.609Z,3.05
2022-08-26T17:36:35.859Z,5.10
2022-08-26T17:39:04.359Z,3.33
2022-08-26T17:41:33.299Z,5.57
2022-08-26T17:44:01.729Z,5.30
2022-08-26T17:46:31.006Z,4.22
2022-08-26T17:49:01.959Z,3.80
2022-08-26T17:51:30.399Z,3.05
2022-08-26T17:54:00.644Z,4.18
2022-08-26T17:56:30.750Z,3.15
2022-08-26T17:59:02.374Z,4.22
2022-08-26T18:01:33.068Z,4.13
2022-08-26T18:04:01.791Z,3.15
2022-08-26T18:06:31.469Z,4.03
2022-08-26T18:09:01.989Z,3.60
2022-08-26T18:11:31.973Z,5.05
2022-08-26T18:14:01.591Z,4.53
2022-08-26T18:16:34.339Z,5.15
2022-08-26T18:19:03.299Z,3.38
2022-08-26T18:21:31.819Z,3.85
2022-08-26T18:24:01.730Z,4.10
2022-08-26T18:26:33.009Z,3.47
2022-08-26T18:29:02.092Z,3.08
2022-08-26T18:31:31.819Z,3.35
2022-08-26T18:34:01.663Z,5.55
2022-08-26T18:36:32.486Z,3.90
2022-08-26T18:39:03.209Z,6.00
2022-08-26T18:41:33.950Z,2.17
2022-08-26T18:44:02.389Z,4.35
2022-08-26T18:46:30.926Z,2.60
2022-08-26T18:48:59.521Z,3.25
2022-08-26T18:51:30.654Z,3.95
2022-08-26T18:54:00.241Z,3.63
2022-08-26T18:56:30.589Z,3.95
2022-08-26T18:59:00.092Z,4.80
2022-08-26T19:01:29.848Z,5.20
2022-08-26T19:03:59.620Z,4.55
2022-08-26T19:06:29.720Z,5.53
2022-08-26T19:08:58.358Z,4.35
2022-08-26T19:11:37.511Z,4.72
2022-08-26T19:14:14.510Z,4.97
2022-08-26T19:16:44.281Z,4.72
2022-08-26T19:19:12.969Z,6.47
2022-08-26T19:21:42.119Z,4.90
2022-08-26T19:24:15.776Z,6.65
2022-08-26T19:26:47.200Z,7.90
2022-08-26T19:31:44.571Z,7.60
2022-08-26T19:34:18.297Z,8.85
2022-08-26T19:36:49.691Z,6.78
2022-08-26T19:39:18.292Z,5.25
2022-08-26T19:41:48.370Z,6.40
2022-08-26T19:44:39.252Z,7.53
2022-08-26T19:47:09.786Z,5.88
2022-08-26T19:49:39.011Z,7.05
2022-08-26T19:52:07.910Z,5.32
2022-08-26T19:54:36.985Z,5.78
2022-08-26T19:57:07.650Z,4.57
2022-08-26T19:59:36.540Z,5.13
2022-08-26T20:02:10.075Z,5.57
2022-08-26T20:04:39.710Z,5.25
2022-08-26T20:07:08.885Z,6.18
2022-08-26T20:09:37.970Z,4.78
2022-08-26T20:12:09.282Z,6.85
2022-08-26T20:14:38.000Z,7.32
2022-08-26T20:17:07.437Z,7.47
2022-08-26T20:19:54.021Z,5.97
2022-08-26T20:22:23.282Z,5.40
2022-08-26T20:24:52.330Z,5.55
2022-08-26T20:27:35.569Z,6.05
2022-08-26T20:30:10.103Z,6.18
2022-08-26T20:32:39.694Z,5.50
2022-08-26T20:35:10.301Z,6.88
2022-08-26T20:37:39.980Z,7.35
2022-08-26T20:40:10.676Z,5.78
2022-08-26T20:42:40.812Z,6.18
2022-08-26T20:45:10.930Z,7.28
2022-08-26T20:47:40.340Z,7.28
2022-08-26T20:50:09.602Z,6.82
2022-08-26T20:52:38.630Z,9.50
2022-08-26T20:55:08.130Z,7.38
2022-08-26T20:57:37.591Z,6.65
2022-08-26T21:00:09.270Z,6.82
2022-08-26T21:02:38.090Z,6.32
2022-08-26T21:05:15.730Z,5.63
2022-08-26T21:07:48.960Z,6.95
2022-08-26T21:10:18.192Z,4.72
2022-08-26T21:12:49.619Z,4.20
2022-08-26T21:15:21.585Z,5.82
2022-08-26T21:17:53.940Z,7.25
2022-08-26T21:20:25.414Z,4.70
2022-08-26T21:22:56.440Z,5.40
2022-08-26T21:25:25.034Z,5.65
2022-08-26T21:27:53.891Z,6.30
2022-08-26T21:30:24.335Z,5.72
2022-08-26T21:32:52.919Z,6.28
2022-08-26T21:35:21.440Z,5.55
2022-08-26T21:37:50.454Z,4.60
2022-08-26T21:40:19.225Z,7.30
2022-08-26T21:42:47.770Z,4.97
2022-08-26T21:45:17.200Z,5.50
2022-08-26T21:47:47.149Z,5.20
2022-08-26T21:50:15.631Z,6.20
2022-08-26T21:52:44.220Z,5.68
2022-08-26T21:55:15.019Z,6.30
2022-08-26T21:57:43.822Z,5.88
2022-08-26T22:00:15.859Z,6.38
2022-08-26T22:02:44.463Z,5.82
2022-08-26T22:05:14.455Z,3.97
2022-08-26T22:07:42.934Z,7.85
2022-08-26T22:10:11.929Z,4.75
2022-08-26T22:12:40.524Z,5.57
2022-08-26T22:15:10.486Z,5.22
2022-08-26T22:17:39.595Z,4.57
2022-08-26T22:20:16.545Z,6.03
2022-08-26T22:22:47.365Z,4.20
2022-08-26T22:25:15.894Z,5.10
2022-08-26T22:27:44.425Z,5.15
2022-08-26T22:30:13.616Z,4.90
2022-08-26T22:32:42.415Z,5.38
2022-08-26T22:35:29.113Z,5.10
2022-08-26T22:40:28.523Z,5.82
2022-08-26T22:42:58.806Z,5.82
2022-08-26T22:45:29.561Z,7.32
2022-08-26T22:47:58.691Z,5.13
2022-08-26T22:50:27.694Z,9.43
2022-08-26T22:52:56.234Z,4.68
2022-08-26T22:55:26.804Z,7.22
2022-08-26T22:57:55.234Z,5.13
2022-08-26T23:00:32.385Z,7.20
2022-08-26T23:03:01.615Z,4.65
2022-08-26T23:05:31.226Z,4.70
2022-08-26T23:08:00.165Z,5.13
2022-08-26T23:10:30.214Z,7.20
2022-08-26T23:12:58.955Z,6.80
2022-08-26T23:15:27.667Z,4.95
2022-08-26T23:17:58.584Z,5.40
2022-08-26T23:20:39.039Z,5.38
2022-08-26T23:23:08.399Z,5.35
2022-08-26T23:25:38.324Z,5.35
2022-08-26T23:28:09.900Z,3.10
2022-08-26T23:30:39.074Z,4.05
2022-08-26T23:33:07.574Z,4.05
2022-08-26T23:35:35.055Z,5.28
2022-08-26T23:38:03.604Z,5.03
2022-08-26T23:40:34.080Z,5.97
2022-08-26T23:43:06.785Z,5.53
2022-08-26T23:45:36.090Z,5.57
2022-08-26T23:48:05.249Z,3.83
2022-08-26T23:50:51.686Z,4.85
2022-08-26T23:53:23.134Z,5.28
2022-08-26T23:55:53.425Z,5.85
2022-08-26T23:58:23.277Z,6.13
